Dades meteomassalio
Diari Summary for Diciembre 1, 2017 Units:  English    Metric   Both
« Previous Day
Next Day »
Diari Semanal Mensual Anual Personalitzat
  Maxima: Minima: Mijana:
Temperatura: 48 °F 34 °F 40.1 °F
Rosada: 38.1 °F 22.8 °F 28.4 °F
Humitat: 86 % 50 % 63 %
Velocitat del vent: 34.5 mph 4.6 mph 19.8 mph
Racha vent: 34.5 mph - -
Vent:- - WNW
Pressio: 30.2 in 30 in -
Pluja: 0.02 in    
Historical Graphs
 
 
Tabular Data for Diciembre 1, 2017
Time Temperature Dew Point Pressure Wind Wind Speed Wind Gust Humidity Rainfall Rate (Hourly) solar Conditions
00:01 39 °F 30 °F 30.1 in WNW 6.9 mph 6.9 mph 70 % 0 in 0.0 W/m2 CLR
00:06 39 °F 30 °F 30.1 in NW 5 mph 5 mph 70 % 0 in 0.0 W/m2 CLR
00:16 37 °F 28.6 °F 30.1 in NW 4.6 mph 4.6 mph 71 % 0 in 0.0 W/m2 CLR
00:26 35.1 °F 27 °F 30.1 in NW 4.6 mph 4.6 mph 72 % 0 in 0.0 W/m2 CLR
00:31 34 °F 26.2 °F 30.1 in NW 8.1 mph 8.1 mph 73 % 0 in 0.0 W/m2 CLR
00:36 34 °F 25.9 °F 30.1 in NW 11.5 mph 11.5 mph 72 % 0 in 0.0 W/m2 CLR
00:41 36 °F 27.1 °F 30.1 in NW 12.7 mph 12.7 mph 70 % 0 in 0.0 W/m2 CLR
00:46 36 °F 26.8 °F 30.1 in NW 13.8 mph 13.8 mph 69 % 0 in 0.0 W/m2 CLR
00:51 37 °F 27.3 °F 30.1 in NW 13.8 mph 13.8 mph 68 % 0 in 0.0 W/m2 CLR
00:56 37.9 °F 27.7 °F 30.1 in NW 11.5 mph 11.5 mph 66 % 0 in 0.0 W/m2 CLR
01:01 39 °F 27.9 °F 30.1 in NW 11.5 mph 11.5 mph 64 % 0 in 0.0 W/m2 CLR
01:11 39.9 °F 28.4 °F 30.1 in NW 12.7 mph 12.7 mph 63 % 0 in 0.0 W/m2 CLR
01:16 41 °F 28.9 °F 30.1 in NW 11 mph 11 mph 62 % 0 in 0.0 W/m2 CLR
01:21 41 °F 28.6 °F 30.1 in NW 11.5 mph 11.5 mph 61 % 0 in 0.0 W/m2 CLR
01:26 41 °F 28.6 °F 30.1 in NNW 11.5 mph 11.5 mph 61 % 0 in 0.0 W/m2 CLR
01:31 41 °F 28.2 °F 30.1 in NW 18 mph 18 mph 60 % 0 in 0.0 W/m2 CLR
01:36 42.1 °F 29.1 °F 30.1 in NW 13.8 mph 13.8 mph 60 % 0 in 0.0 W/m2 CLR
01:41 41 °F 28.2 °F 30.1 in NW 12.7 mph 12.7 mph 60 % 0 in 0.0 W/m2 CLR
01:46 41 °F 28.2 °F 30.1 in NW 17.3 mph 17.3 mph 60 % 0 in 0.0 W/m2 CLR
01:56 41 °F 27.9 °F 30.1 in NW 17.3 mph 17.3 mph 59 % 0 in 0.0 W/m2 CLR
02:06 41 °F 27.9 °F 30.1 in NW 12.7 mph 12.7 mph 59 % 0 in 0.0 W/m2 CLR
02:11 41 °F 27.9 °F 30.1 in WNW 15 mph 15 mph 59 % 0 in 0.0 W/m2 CLR
02:21 41 °F 28.2 °F 30.1 in NNW 16 mph 16 mph 60 % 0 in 0.0 W/m2 CLR
02:26 41 °F 28.2 °F 30.1 in NW 17.3 mph 17.3 mph 60 % 0 in 0.0 W/m2 CLR
02:31 41 °F 28.2 °F 30.1 in NW 13.8 mph 13.8 mph 60 % 0 in 0.0 W/m2 CLR
02:36 41 °F 28.2 °F 30.1 in NW 13.8 mph 13.8 mph 60 % 0 in 0.0 W/m2 CLR
02:41 41 °F 28.2 °F 30.1 in NW 13.8 mph 13.8 mph 60 % 0 in 0.0 W/m2 CLR
02:46 41 °F 28.2 °F 30.1 in NW 10.4 mph 10.4 mph 60 % 0 in 0.0 W/m2 CLR
02:51 41 °F 28.2 °F 30.1 in NW 10 mph 10 mph 60 % 0 in 0.0 W/m2 CLR
02:56 39.9 °F 27.7 °F 30.1 in WNW 14 mph 14 mph 61 % 0 in 0.0 W/m2 CLR
03:01 39.9 °F 27.7 °F 30.1 in NW 11.5 mph 11.5 mph 61 % 0 in 0.0 W/m2 CLR
03:06 39.9 °F 27.7 °F 30.1 in WNW 11.5 mph 11.5 mph 61 % 0 in 0.0 W/m2 CLR
03:11 39 °F 26.8 °F 30.1 in WNW 11.5 mph 11.5 mph 61 % 0 in 0.0 W/m2 CLR
03:16 39.9 °F 27.1 °F 30.1 in NW 15 mph 15 mph 60 % 0 in 0.0 W/m2 CLR
03:21 39.9 °F 27.1 °F 30.1 in NW 13.8 mph 13.8 mph 60 % 0 in 0.0 W/m2 CLR
03:31 41 °F 28.2 °F 30.1 in NW 15 mph 15 mph 60 % 0 in 0.0 W/m2 CLR
03:41 41 °F 28.2 °F 30.1 in WNW 15 mph 15 mph 60 % 0 in 0.0 W/m2 CLR
03:47 41 °F 28.2 °F 30.1 in WNW 16.1 mph 16.1 mph 60 % 0 in 0.0 W/m2 CLR
03:52 41 °F 28.2 °F 30.1 in NW 16.1 mph 16.1 mph 60 % 0 in 0.0 W/m2 CLR
03:57 39.9 °F 27.1 °F 30.1 in WNW 17.3 mph 17.3 mph 60 % 0 in 0.0 W/m2 CLR
04:02 41 °F 28.2 °F 30.1 in NW 13.8 mph 13.8 mph 60 % 0 in 0.0 W/m2 CLR
04:07 41 °F 28.2 °F 30.1 in WNW 15 mph 15 mph 60 % 0 in 0.0 W/m2 CLR
04:12 41 °F 28.2 °F 30.1 in WNW 13.8 mph 13.8 mph 60 % 0 in 0.0 W/m2 CLR
04:19 41 °F 27.9 °F 30.1 in WNW 11.5 mph 11.5 mph 59 % 0 in 0.0 W/m2 CLR
04:22 41 °F 28.2 °F 30.1 in NW 10.4 mph 10.4 mph 60 % 0 in 0.0 W/m2 CLR
04:24 39.9 °F 27.1 °F 30.1 in West 11.5 mph 11.5 mph 60 % 0 in 0.0 W/m2 CLR
04:25 39.9 °F 27.1 °F 30.1 in WNW 11.5 mph 11.5 mph 60 % 0 in 0.0 W/m2 CLR
04:32 39.9 °F 27.1 °F 30.1 in WNW 9.2 mph 9.2 mph 60 % 0 in 0.0 W/m2 CLR
04:35 39.9 °F 27.1 °F 30.1 in WNW 10.4 mph 10.4 mph 60 % 0 in 0.0 W/m2 CLR
04:40 39 °F 26.2 °F 30.1 in NW 13.8 mph 13.8 mph 60 % 0 in 0.0 W/m2 CLR
04:45 39 °F 26.2 °F 30.1 in WNW 16.1 mph 16.1 mph 60 % 0 in 0.0 W/m2 CLR
04:50 39 °F 26.2 °F 30.1 in WNW 11.5 mph 11.5 mph 60 % 0 in 0.0 W/m2 CLR
04:55 39 °F 26.8 °F 30.1 in WNW 8.1 mph 8.1 mph 61 % 0 in 0.0 W/m2 CLR
05:05 37.9 °F 26.4 °F 30.1 in NW 9.2 mph 9.2 mph 63 % 0 in 0.0 W/m2 CLR
05:15 37.9 °F 25.7 °F 30 in NW 12 mph 12 mph 61 % 0 in 0.0 W/m2 CLR
05:20 39 °F 26.2 °F 30 in NW 13 mph 13 mph 60 % 0 in 0.0 W/m2 CLR
05:25 39.9 °F 27.1 °F 30 in NW 19.6 mph 19.6 mph 60 % 0 in 0.0 W/m2 CLR
05:30 39.9 °F 26.8 °F 30 in WNW 13.8 mph 13.8 mph 59 % 0 in 0.0 W/m2 CLR
05:35 41 °F 27.9 °F 30 in NW 12.7 mph 12.7 mph 59 % 0 in 0.0 W/m2 CLR
05:36 41 °F 27.9 °F 30 in NW 17 mph 17 mph 59 % 0 in 0.0 W/m2 CLR
05:41 41 °F 27.3 °F 30 in NW 19.6 mph 19.6 mph 58 % 0 in 0.0 W/m2 CLR
05:46 42.1 °F 28.2 °F 30 in NW 15 mph 15 mph 58 % 0 in 0.0 W/m2 CLR
05:56 42.1 °F 27.9 °F 30 in WNW 13.8 mph 13.8 mph 57 % 0 in 0.0 W/m2 CLR
06:01 42.1 °F 27.9 °F 30 in WNW 15 mph 15 mph 57 % 0 in 0.0 W/m2 CLR
06:06 42.1 °F 27.9 °F 30 in WNW 15 mph 15 mph 57 % 0 in 0.0 W/m2 CLR
06:11 42.1 °F 28.2 °F 30 in NW 12.7 mph 12.7 mph 58 % 0 in 0.0 W/m2 CLR
06:21 41 °F 27.3 °F 30 in WNW 11.5 mph 11.5 mph 58 % 0 in 0.0 W/m2 CLR
06:26 39.9 °F 26.4 °F 30 in WNW 8.1 mph 8.1 mph 58 % 0 in 0.0 W/m2 CLR
06:31 39.9 °F 26.4 °F 30 in WNW 9.2 mph 9.2 mph 58 % 0 in 0.0 W/m2 CLR
06:36 39.9 °F 26.8 °F 30 in West 12.7 mph 12.7 mph 59 % 0 in 0.0 W/m2 CLR
06:41 39.9 °F 26.8 °F 30 in WNW 11.5 mph 11.5 mph 59 % 0 in 0.0 W/m2 CLR
06:51 39 °F 26.2 °F 30 in WNW 9 mph 9 mph 60 % 0 in 0.0 W/m2 CLR
06:56 39 °F 26.2 °F 30 in WNW 9.2 mph 9.2 mph 60 % 0 in 0.0 W/m2 CLR
07:01 39 °F 26.2 °F 30 in NW 11.5 mph 11.5 mph 60 % 0 in 0.0 W/m2 CLR
07:06 39.9 °F 26.8 °F 30 in WNW 15 mph 15 mph 59 % 0 in 0.0 W/m2 CLR
07:11 39.9 °F 26.8 °F 30 in NW 13.8 mph 13.8 mph 59 % 0 in 0.0 W/m2 CLR
07:16 41 °F 27.9 °F 30 in WNW 13.8 mph 13.8 mph 59 % 0 in 0.0 W/m2 CLR
07:21 41 °F 27.9 °F 30 in NW 16.1 mph 16.1 mph 59 % 0 in 0.0 W/m2 CLR
07:26 41 °F 28.2 °F 30 in NW 12.7 mph 12.7 mph 60 % 0 in 0.0 W/m2 CLR
07:36 41 °F 28.2 °F 30 in NW 10.4 mph 10.4 mph 60 % 0 in 0.0 W/m2 CLR
07:41 41 °F 28.2 °F 30 in NW 11.5 mph 11.5 mph 60 % 0 in 0.0 W/m2 CLR
07:46 41 °F 28.2 °F 30 in WNW 8.1 mph 8.1 mph 60 % 0 in 0.0 W/m2 CLR
07:51 39.9 °F 27.1 °F 30 in NW 10.4 mph 10.4 mph 60 % 0 in 0.0 W/m2 CLR
07:56 39.9 °F 27.7 °F 30 in North 10.4 mph 10.4 mph 61 % 0 in 0.0 W/m2 CLR
08:01 39.9 °F 27.7 °F 30 in WNW 13 mph 13 mph 61 % 0 in 0.0 W/m2 OVC
08:06 39.9 °F 27.1 °F 30 in NW 11.5 mph 11.5 mph 60 % 0 in 7.0 W/m2 OVC
08:11 41 °F 28.2 °F 30 in NW 13 mph 13 mph 60 % 0 in 9.0 W/m2 BKN
08:16 42.1 °F 29.1 °F 30 in NW 15 mph 15 mph 60 % 0 in 12.0 W/m2 BKN
08:21 42.1 °F 28.8 °F 30 in WNW 12.7 mph 12.7 mph 59 % 0 in 12.0 W/m2 BKN
08:26 42.1 °F 29.1 °F 30 in WNW 13 mph 13 mph 60 % 0 in 12.0 W/m2 BKN
08:31 42.1 °F 29.1 °F 30 in NW 12.7 mph 12.7 mph 60 % 0 in 14.0 W/m2 BKN
08:36 42.1 °F 29.1 °F 30 in NW 14 mph 14 mph 60 % 0 in 21.0 W/m2 BKN
08:41 42.1 °F 29.1 °F 30 in NW 14 mph 14 mph 60 % 0 in 30.0 W/m2 BKN
08:46 42.1 °F 29.1 °F 30 in WNW 15 mph 15 mph 60 % 0 in 35.0 W/m2 BKN
08:51 42.1 °F 29.1 °F 30 in NW 13.8 mph 13.8 mph 60 % 0 in 51.0 W/m2 SCT
08:56 42.1 °F 28.8 °F 30 in WNW 18.4 mph 18.4 mph 59 % 0 in 65.0 W/m2 SCT
09:01 42.1 °F 28.8 °F 30 in NW 20.7 mph 20.7 mph 59 % 0 in 70.0 W/m2 FEW
09:11 43 °F 29.1 °F 30 in WNW 13.8 mph 13.8 mph 58 % 0 in 134.0 W/m2 FEW
09:16 44.1 °F 30.2 °F 30 in NW 17.3 mph 17.3 mph 58 % 0 in 70.0 W/m2 CLR
09:21 44.1 °F 29.7 °F 30 in WNW 19 mph 19 mph 57 % 0 in 54.0 W/m2 FEW
09:23 44.1 °F 29.7 °F 30 in NNW 18.4 mph 18.4 mph 57 % 0 in 54.0 W/m2 FEW
09:28 44.1 °F 30.2 °F 30 in WNW 20.7 mph 20.7 mph 58 % 0 in 35.0 W/m2 SCT
09:33 44.1 °F 30.2 °F 30 in NW 25.3 mph 25.3 mph 58 % 0 in 47.0 W/m2 BKN
09:38 44.1 °F 29.7 °F 30 in WNW 21 mph 21 mph 57 % 0 in 62.0 W/m2 SCT
09:43 44.1 °F 29.7 °F 30 in NNW 19 mph 19 mph 57 % 0 in 158.0 W/m2 FEW
09:48 45 °F 30.2 °F 30 in NW 20.7 mph 20.7 mph 56 % 0 in 98.0 W/m2 CLR
09:53 45 °F 29.8 °F 30 in NW 18.4 mph 18.4 mph 55 % 0 in 63.0 W/m2 CLR
09:58 45 °F 29.8 °F 30 in WNW 20.7 mph 20.7 mph 55 % 0 in 91.0 W/m2 FEW
10:03 46 °F 30.7 °F 30 in NW 21.9 mph 21.9 mph 55 % 0 in 272.0 W/m2 CLR
10:13 46.9 °F 31.3 °F 30 in WNW 19.6 mph 19.6 mph 54 % 0 in 183.0 W/m2 CLR
10:18 48 °F 31.6 °F 30 in WNW 19.6 mph 19.6 mph 53 % 0 in 258.0 W/m2 CLR
10:23 48 °F 32.2 °F 30 in NNW 20.7 mph 20.7 mph 54 % 0 in 462.0 W/m2 CLR
10:28 48 °F 31.6 °F 30 in NNW 19.6 mph 19.6 mph 53 % 0 in 160.0 W/m2 CLR
10:33 48 °F 32.2 °F 30 in North 20 mph 20 mph 54 % 0 in 111.0 W/m2 CLR
10:38 46.9 °F 31.6 °F 30 in NW 17.3 mph 17.3 mph 55 % 0 in 93.0 W/m2 CLR
10:43 46.9 °F 32.2 °F 30 in NNW 16.1 mph 16.1 mph 56 % 0 in 95.0 W/m2 CLR
10:58 46.9 °F 31.6 °F 30 in NW 19.6 mph 19.6 mph 55 % 0 in 132.0 W/m2 CLR
11:03 46.9 °F 32.2 °F 30 in North 20.7 mph 20.7 mph 56 % 0 in 125.0 W/m2 CLR
11:08 46.9 °F 32.5 °F 30 in NNW 25.3 mph 25.3 mph 57 % 0 in 84.0 W/m2 CLR
11:13 46 °F 33.3 °F 30 in NNW 34.5 mph 34.5 mph 61 % 0 in 107.0 W/m2 CLR
11:18 45 °F 33.4 °F 30 in North 28.8 mph 28.8 mph 64 % 0 in 81.0 W/m2 CLR
11:20 45 °F 34 °F 30 in North 28.8 mph 28.8 mph 65 % 0 in 74.0 W/m2 CLR
11:25 44.1 °F 34.9 °F 30 in North 25 mph 25 mph 70 % 0 in 63.0 W/m2 FEW
11:30 43 °F 35.6 °F 30 in North 33.4 mph 33.4 mph 75 % 0 in 88.0 W/m2 FEW
11:35 42.1 °F 36 °F 30 in North 21.9 mph 21.9 mph 79 % 0 in 81.0 W/m2 FEW
11:40 42.1 °F 36.7 °F 30 in North 21.9 mph 21.9 mph 81 % 0.01 in 111.0 W/m2 RA
11:45 41 °F 36.1 °F 30 in NW 23 mph 23 mph 83 % 0.01 in 91.0 W/m2 CLR
11:50 41 °F 36.5 °F 30 in NNW 34.5 mph 34.5 mph 84 % 0.01 in 156.0 W/m2 CLR
11:55 41 °F 36.9 °F 30 in North 24 mph 24 mph 85 % 0.01 in 241.0 W/m2 CLR
12:00 41 °F 37 °F 30 in NNW 24.2 mph 24.2 mph 86 % 0.01 in 311.0 W/m2 CLR
12:05 42.1 °F 38.1 °F 30 in NW 24.2 mph 24.2 mph 86 % 0.01 in 250.0 W/m2 CLR
12:10 42.1 °F 37.8 °F 30 in NW 19.6 mph 19.6 mph 85 % 0.01 in 84.0 W/m2 CLR
12:15 41 °F 36.5 °F 30 in NNW 23 mph 23 mph 84 % 0.01 in 49.0 W/m2 FEW
12:20 41 °F 36.5 °F 30 in North 28.8 mph 28.8 mph 84 % 0.01 in 67.0 W/m2 SCT
12:25 41 °F 36.1 °F 30 in NNW 31.1 mph 31.1 mph 83 % 0.01 in 125.0 W/m2 FEW
12:30 41 °F 36.1 °F 30 in North 26 mph 26 mph 83 % 0.01 in 97.0 W/m2 CLR
12:35 39.9 °F 34.9 °F 30 in NNW 26.5 mph 26.5 mph 82 % 0.01 in 98.0 W/m2 CLR
12:40 39.9 °F 34.5 °F 30 in NNW 28.8 mph 28.8 mph 81 % 0 in 128.0 W/m2 CLR
12:45 41 °F 35.6 °F 30 in NNW 22 mph 22 mph 81 % 0 in 76.0 W/m2 CLR
12:50 41 °F 35.2 °F 30 in NNW 24.2 mph 24.2 mph 80 % 0 in 120.0 W/m2 CLR
12:55 41 °F 35.6 °F 30 in NNW 23 mph 23 mph 81 % 0 in 174.0 W/m2 CLR
13:01 41 °F 35.2 °F 30 in North 19.6 mph 19.6 mph 80 % 0 in 229.0 W/m2 CLR
13:06 42.1 °F 35.6 °F 30 in NNW 23 mph 23 mph 78 % 0 in 278.0 W/m2 CLR
13:16 42.1 °F 34.3 °F 30 in NW 18.4 mph 18.4 mph 74 % 0 in 229.0 W/m2 CLR
13:21 43 °F 34.9 °F 30 in NNW 17.3 mph 17.3 mph 73 % 0 in 299.0 W/m2 CLR
13:26 43 °F 34.5 °F 30 in NW 17.3 mph 17.3 mph 72 % 0 in 364.0 W/m2 CLR
13:31 43 °F 33.4 °F 30 in North 31 mph 31 mph 69 % 0 in 213.0 W/m2 CLR
13:36 42.1 °F 32.5 °F 30 in NNW 19.6 mph 19.6 mph 69 % 0 in 204.0 W/m2 CLR
13:41 42.1 °F 32.2 °F 30 in NNW 21.9 mph 21.9 mph 68 % 0 in 244.0 W/m2 CLR
13:46 42.1 °F 31.8 °F 30 in NW 28.8 mph 28.8 mph 67 % 0 in 197.0 W/m2 CLR
13:51 42.1 °F 32.2 °F 30 in NW 24.2 mph 24.2 mph 68 % 0 in 181.0 W/m2 CLR
13:56 41 °F 31.6 °F 30 in NW 17.3 mph 17.3 mph 69 % 0 in 174.0 W/m2 CLR
14:01 41 °F 31.6 °F 30 in North 27.6 mph 27.6 mph 69 % 0 in 209.0 W/m2 CLR
14:06 41 °F 32 °F 30 in North 21.9 mph 21.9 mph 70 % 0 in 151.0 W/m2 CLR
14:11 41 °F 31.6 °F 30 in North 21.9 mph 21.9 mph 69 % 0 in 162.0 W/m2 CLR
14:16 41 °F 31.3 °F 30 in North 33 mph 33 mph 68 % 0 in 156.0 W/m2 CLR
14:21 41 °F 31.3 °F 30 in NW 31.1 mph 31.1 mph 68 % 0 in 163.0 W/m2 CLR
14:26 41 °F 30.9 °F 30 in NW 25.3 mph 25.3 mph 67 % 0 in 160.0 W/m2 CLR
14:31 41 °F 30.9 °F 30 in NNW 26.5 mph 26.5 mph 67 % 0 in 98.0 W/m2 CLR
14:41 41 °F 29.7 °F 30 in NW 25.3 mph 25.3 mph 64 % 0 in 369.0 W/m2 CLR
14:46 42.1 °F 29.8 °F 30 in NNW 25.3 mph 25.3 mph 62 % 0 in 371.0 W/m2 CLR
14:51 42.1 °F 29.5 °F 30 in NW 20.7 mph 20.7 mph 61 % 0 in 387.0 W/m2 CLR
15:01 43 °F 29.1 °F 30 in NNW 20.7 mph 20.7 mph 58 % 0 in 359.0 W/m2 CLR
15:06 43 °F 28.4 °F 30 in NNW 26 mph 26 mph 56 % 0 in 318.0 W/m2 CLR
15:16 43 °F 27.5 °F 30 in North 28 mph 28 mph 54 % 0 in 295.0 W/m2 CLR
15:21 43 °F 27 °F 30 in NNW 34.5 mph 34.5 mph 53 % 0 in 281.0 W/m2 CLR
15:31 43 °F 26.1 °F 30 in NNW 33.4 mph 33.4 mph 51 % 0.01 in 258.0 W/m2 RA
15:36 43 °F 26.6 °F 30 in North 34.5 mph 34.5 mph 52 % 0.01 in 243.0 W/m2 CLR
15:41 43 °F 27 °F 30 in NNW 26.5 mph 26.5 mph 53 % 0.01 in 234.0 W/m2 CLR
15:46 43 °F 27 °F 30 in North 31.1 mph 31.1 mph 53 % 0.01 in 218.0 W/m2 CLR
15:51 42.1 °F 26.4 °F 30 in North 31.1 mph 31.1 mph 54 % 0.01 in 207.0 W/m2 CLR
16:01 42.1 °F 26.4 °F 30 in NNW 34.5 mph 34.5 mph 54 % 0.01 in 178.0 W/m2 CLR
16:06 42.1 °F 26.4 °F 30 in NW 31.1 mph 31.1 mph 54 % 0.01 in 163.0 W/m2 CLR
16:21 42.1 °F 26.4 °F 30 in NW 21.9 mph 21.9 mph 54 % 0.01 in 121.0 W/m2 CLR
16:31 41 °F 25.2 °F 30 in North 26.5 mph 26.5 mph 53 % 0 in 90.0 W/m2 CLR
16:36 41 °F 25.2 °F 30 in NNW 25 mph 25 mph 53 % 0 in 77.0 W/m2 FEW
16:41 41 °F 25.2 °F 30 in NNW 26.5 mph 26.5 mph 53 % 0 in 62.0 W/m2 BKN
16:51 41 °F 24.3 °F 30 in North 26.5 mph 26.5 mph 51 % 0 in 46.0 W/m2 SCT
16:56 41 °F 23.7 °F 30 in North 30 mph 30 mph 50 % 0 in 35.0 W/m2 BKN
17:01 41 °F 23.7 °F 30 in North 31 mph 31 mph 50 % 0 in 25.0 W/m2 BKN
17:06 39.9 °F 22.8 °F 30 in North 24.2 mph 24.2 mph 50 % 0 in 16.0 W/m2 BKN
17:11 39.9 °F 23.4 °F 30 in North 25.3 mph 25.3 mph 51 % 0 in 12.0 W/m2 BKN
17:16 39.9 °F 23.7 °F 30.1 in NNW 21 mph 21 mph 52 % 0 in 12.0 W/m2 BKN
17:21 39.9 °F 24.3 °F 30 in NNW 28 mph 28 mph 53 % 0 in 9.0 W/m2 BKN
17:31 39.9 °F 24.6 °F 30.1 in North 24.2 mph 24.2 mph 54 % 0 in 5.0 W/m2 OVC
17:36 39 °F 23.7 °F 30.1 in NNW 28.8 mph 28.8 mph 54 % 0 in 0.0 W/m2 OVC
17:46 39 °F 23.7 °F 30.1 in NNW 24 mph 24 mph 54 % 0 in 0.0 W/m2 CLR
17:51 39 °F 24.3 °F 30.1 in North 25.3 mph 25.3 mph 55 % 0 in 0.0 W/m2 CLR
17:56 39 °F 24.3 °F 30.1 in North 25.3 mph 25.3 mph 55 % 0 in 0.0 W/m2 CLR
18:01 39 °F 24.6 °F 30.1 in North 29.9 mph 29.9 mph 56 % 0 in 0.0 W/m2 CLR
18:11 37.9 °F 24.1 °F 30.1 in North 33.4 mph 33.4 mph 57 % 0 in 0.0 W/m2 CLR
18:17 37.9 °F 24.1 °F 30.1 in North 27.6 mph 27.6 mph 57 % 0 in 0.0 W/m2 CLR
18:22 37.9 °F 24.1 °F 30.1 in NNW 31.1 mph 31.1 mph 57 % 0 in 0.0 W/m2 CLR
18:27 37.9 °F 24.4 °F 30.1 in NNW 28.8 mph 28.8 mph 58 % 0 in 0.0 W/m2 CLR
18:32 37.9 °F 24.4 °F 30.1 in North 26.5 mph 26.5 mph 58 % 0 in 0.0 W/m2 CLR
18:37 37.9 °F 25 °F 30.1 in NNW 32.2 mph 32.2 mph 59 % 0 in 0.0 W/m2 CLR
18:42 37.9 °F 25 °F 30.1 in NNW 26.5 mph 26.5 mph 59 % 0 in 0.0 W/m2 CLR
18:47 37 °F 24.4 °F 30.1 in North 34.5 mph 34.5 mph 60 % 0 in 0.0 W/m2 CLR
18:52 37 °F 24.4 °F 30.1 in North 26.5 mph 26.5 mph 60 % 0 in 0.0 W/m2 CLR
18:57 37 °F 24.8 °F 30.1 in NNW 26.5 mph 26.5 mph 61 % 0 in 0.0 W/m2 CLR
19:02 37 °F 25.2 °F 30.1 in NNW 22 mph 22 mph 62 % 0 in 0.0 W/m2 CLR
19:07 37 °F 25.2 °F 30.1 in NNW 25.3 mph 25.3 mph 62 % 0 in 0.0 W/m2 CLR
19:12 37 °F 25.2 °F 30.1 in NNW 27.6 mph 27.6 mph 62 % 0 in 0.0 W/m2 CLR
19:17 37 °F 25.5 °F 30.1 in North 26.5 mph 26.5 mph 63 % 0 in 0.0 W/m2 CLR
19:22 37 °F 25.5 °F 30.1 in NNW 25.3 mph 25.3 mph 63 % 0 in 0.0 W/m2 CLR
19:27 36 °F 24.6 °F 30.1 in NNW 17.3 mph 17.3 mph 63 % 0 in 0.0 W/m2 CLR
19:32 36 °F 25 °F 30.1 in North 18 mph 18 mph 64 % 0 in 0.0 W/m2 CLR
19:37 36 °F 25 °F 30.1 in North 19.6 mph 19.6 mph 64 % 0 in 0.0 W/m2 CLR
19:48 36 °F 25.3 °F 30.1 in NNW 23 mph 23 mph 65 % 0 in 0.0 W/m2 CLR
19:53 36 °F 25.3 °F 30.1 in NNE 20.7 mph 20.7 mph 65 % 0 in 0.0 W/m2 CLR
19:58 36 °F 25.7 °F 30.1 in NNW 20.7 mph 20.7 mph 66 % 0 in 0.0 W/m2 CLR
20:13 36 °F 26.8 °F 30.2 in NNW 20.7 mph 20.7 mph 69 % 0 in 0.0 W/m2 CLR
20:18 36 °F 26.8 °F 30.2 in North 19.6 mph 19.6 mph 69 % 0 in 0.0 W/m2 CLR
20:23 36 °F 27.1 °F 30.2 in NNW 25.3 mph 25.3 mph 70 % 0 in 0.0 W/m2 CLR
20:28 35.1 °F 26.2 °F 30.2 in NNW 20 mph 20 mph 70 % 0 in 0.0 W/m2 CLR
20:38 35.1 °F 26.4 °F 30.2 in North 24.2 mph 24.2 mph 71 % 0 in 0.0 W/m2 CLR
20:43 35.1 °F 26.4 °F 30.2 in North 24.2 mph 24.2 mph 71 % 0 in 0.0 W/m2 CLR
20:48 35.1 °F 26.4 °F 30.2 in NNW 27.6 mph 27.6 mph 71 % 0 in 0.0 W/m2 CLR
20:54 35.1 °F 26.4 °F 30.2 in NNW 28.8 mph 28.8 mph 71 % 0 in 0.0 W/m2 CLR
20:59 35.1 °F 26.2 °F 30.2 in NNW 23 mph 23 mph 70 % 0 in 0.0 W/m2 CLR
21:04 36 °F 27.1 °F 30.2 in NNW 26.5 mph 26.5 mph 70 % 0 in 0.0 W/m2 CLR
21:09 36 °F 27.1 °F 30.2 in North 21.9 mph 21.9 mph 70 % 0 in 0.0 W/m2 CLR
21:19 36 °F 26.8 °F 30.2 in North 21.9 mph 21.9 mph 69 % 0 in 0.0 W/m2 CLR
21:24 36 °F 26.8 °F 30.2 in North 26.5 mph 26.5 mph 69 % 0 in 0.0 W/m2 CLR
21:29 35.1 °F 25.9 °F 30.2 in North 26.5 mph 26.5 mph 69 % 0 in 0.0 W/m2 CLR
21:34 36 °F 26.8 °F 30.2 in North 22 mph 22 mph 69 % 0 in 0.0 W/m2 CLR
21:39 36 °F 27.1 °F 30.2 in North 24.2 mph 24.2 mph 70 % 0 in 0.0 W/m2 CLR
21:49 36 °F 27.1 °F 30.2 in North 19.6 mph 19.6 mph 70 % 0 in 0.0 W/m2 CLR
21:54 36 °F 27.1 °F 30.2 in North 21.9 mph 21.9 mph 70 % 0 in 0.0 W/m2 CLR
21:59 35.1 °F 26.2 °F 30.2 in NNW 17.3 mph 17.3 mph 70 % 0 in 0.0 W/m2 CLR
22:04 35.1 °F 26.2 °F 30.2 in NNW 17 mph 17 mph 70 % 0 in 0.0 W/m2 CLR
22:09 35.1 °F 26.2 °F 30.2 in NNW 24 mph 24 mph 70 % 0 in 0.0 W/m2 CLR
22:14 35.1 °F 26.2 °F 30.2 in NNW 24.2 mph 24.2 mph 70 % 0 in 0.0 W/m2 CLR
22:19 35.1 °F 26.2 °F 30.2 in NNW 26.5 mph 26.5 mph 70 % 0 in 0.0 W/m2 CLR
22:24 35.1 °F 26.2 °F 30.2 in NNW 22 mph 22 mph 70 % 0 in 0.0 W/m2 CLR
22:29 36 °F 27.5 °F 30.2 in NNW 24.2 mph 24.2 mph 71 % 0 in 0.0 W/m2 CLR
22:34 35.1 °F 26.4 °F 30.2 in NNW 18.4 mph 18.4 mph 71 % 0 in 0.0 W/m2 CLR
22:39 35.1 °F 26.4 °F 30.2 in NNW 18.4 mph 18.4 mph 71 % 0 in 0.0 W/m2 CLR
22:44 35.1 °F 26.4 °F 30.2 in NNW 19.6 mph 19.6 mph 71 % 0 in 0.0 W/m2 CLR
22:49 35.1 °F 26.4 °F 30.2 in NW 20.7 mph 20.7 mph 71 % 0 in 0.0 W/m2 CLR
23:01 35.1 °F 27 °F 30.2 in NNE 18.4 mph 18.4 mph 72 % 0 in 0.0 W/m2 CLR
23:06 35.1 °F 27 °F 30.2 in North 23 mph 23 mph 72 % 0 in 0.0 W/m2 CLR
23:11 35.1 °F 27 °F 30.2 in NNW 19.6 mph 19.6 mph 72 % 0 in 0.0 W/m2 CLR
23:16 35.1 °F 27 °F 30.2 in NNW 19.6 mph 19.6 mph 72 % 0 in 0.0 W/m2 CLR
23:26 35.1 °F 27 °F 30.2 in NNW 18.4 mph 18.4 mph 72 % 0 in 0.0 W/m2 CLR
23:32 35.1 °F 27 °F 30.2 in NW 25 mph 25 mph 72 % 0 in 0.0 W/m2 CLR
23:37 35.1 °F 27 °F 30.2 in North 19.6 mph 19.6 mph 72 % 0 in 0.0 W/m2 CLR
23:42 35.1 °F 27 °F 30.2 in NNW 19.6 mph 19.6 mph 72 % 0 in 0.0 W/m2 CLR
23:47 35.1 °F 27 °F 30.2 in NNW 24.2 mph 24.2 mph 72 % 0 in 0.0 W/m2 CLR
23:52 35.1 °F 27 °F 30.2 in NW 25.3 mph 25.3 mph 72 % 0 in 0.0 W/m2 CLR
Lo Temps de Massalio
Compliments of Weather Underground - 1 mb